| Date | Time | Temp. (oF) | Dew Point (oF) | Rel. Hum. (%) | Press. (in.) | Wind Dir. | Wind Speed (mph) | Hourly Rainfall (in.) |
|
|---|---|---|---|---|---|---|---|---|---|
| 1 | 06/02 | 00:00 | 59 | 54 | 86 | 30.23 | E | 2 | 0.00 |
| 2 | 06/01 | 23:00 | 61 | 54 | 79 | 30.22 | ESE | 3 | 0.00 |
| 3 | 06/01 | 22:00 | 63 | 54 | 74 | 30.22 | ESE | 4 | 0.00 |
| 4 | 06/01 | 21:00 | 66 | 54 | 67 | 30.20 | E | 3 | 0.00 |
| 5 | 06/01 | 20:00 | 69 | 55 | 62 | 30.18 | SSE | 4 | 0.00 |
| 6 | 06/01 | 19:00 | 73 | 59 | 62 | 30.16 | SSE | 6 | 0.00 |
| 7 | 06/01 | 18:00 | 75 | 61 | 64 | 30.14 | SSE | 13 | 0.00 |
| 8 | 06/01 | 17:00 | 78 | 60 | 56 | 30.13 | S | 9 | 0.00 |
| 9 | 06/01 | 16:00 | 79 | 55 | 44 | 30.14 | S | 4 | 0.00 |
| 10 | 06/01 | 15:00 | 78 | 55 | 46 | 30.15 | S | 4 | 0.00 |
| 11 | 06/01 | 14:00 | 78 | 57 | 49 | 30.15 | SE | 2 | 0.00 |
| 12 | 06/01 | 13:00 | 76 | 58 | 54 | 30.17 | SSE | 5 | 0.00 |
| 13 | 06/01 | 12:00 | 77 | 56 | 50 | 30.18 | ESE | 2 | 0.00 |
| 14 | 06/01 | 11:00 | 74 | 57 | 57 | 30.19 | SW | 3 | 0.00 |
| 15 | 06/01 | 10:00 | 69 | 59 | 72 | 30.20 | E | 3 | 0.00 |
| 16 | 06/01 | 09:00 | 65 | 59 | 82 | 30.21 | ESE | 3 | 0.00 |
| 17 | 06/01 | 08:00 | 58 | 58 | 100 | 30.19 | ENE | 3 | 0.00 |
| 18 | 06/01 | 07:00 | 53 | 52 | 99 | 30.18 | ENE | 0 | 0.00 |
| 19 | 06/01 | 06:00 | 52 | 50 | 95 | 30.17 | SSE | 0 | 0.00 |
| 20 | 06/01 | 05:00 | 53 | 51 | 95 | 30.15 | NNW | 0 | 0.00 |
| 21 | 06/01 | 04:00 | 54 | 52 | 93 | 30.13 | NNE | 0 | 0.00 |
| 22 | 06/01 | 03:00 | 56 | 53 | 90 | 30.12 | NNE | 0 | 0.00 |
| 23 | 06/01 | 02:00 | 57 | 53 | 88 | 30.12 | N | 2 | 0.00 |
| 24 | 06/01 | 01:00 | 58 | 53 | 85 | 30.12 | ENE | 2 | 0.00 |